sensor_id;sensor_type;location;lat;lon;timestamp;P1;durP1;ratioP1;P2;durP2;ratioP2
9138;SDS011;4604;48.616;9.548;2023-05-29T00:00:54;5.70;;;3.55;;
9138;SDS011;4604;48.616;9.548;2023-05-29T00:03:24;5.72;;;3.30;;
9138;SDS011;4604;48.616;9.548;2023-05-29T00:05:51;7.10;;;3.72;;
9138;SDS011;4604;48.616;9.548;2023-05-29T00:08:18;7.55;;;3.70;;
9138;SDS011;4604;48.616;9.548;2023-05-29T00:10:45;5.95;;;3.60;;
9138;SDS011;4604;48.616;9.548;2023-05-29T00:13:13;5.45;;;3.90;;
9138;SDS011;4604;48.616;9.548;2023-05-29T00:15:39;8.45;;;4.05;;
9138;SDS011;4604;48.616;9.548;2023-05-29T00:18:06;5.10;;;3.40;;
9138;SDS011;4604;48.616;9.548;2023-05-29T00:20:33;5.28;;;3.78;;
9138;SDS011;4604;48.616;9.548;2023-05-29T00:23:01;6.38;;;3.90;;
9138;SDS011;4604;48.616;9.548;2023-05-29T00:25:29;6.05;;;3.85;;
9138;SDS011;4604;48.616;9.548;2023-05-29T00:27:56;4.80;;;3.55;;
9138;SDS011;4604;48.616;9.548;2023-05-29T00:30:24;4.78;;;3.63;;
9138;SDS011;4604;48.616;9.548;2023-05-29T00:32:50;5.60;;;3.75;;
9138;SDS011;4604;48.616;9.548;2023-05-29T00:35:20;5.43;;;3.50;;
9138;SDS011;4604;48.616;9.548;2023-05-29T00:37:46;6.72;;;3.53;;
9138;SDS011;4604;48.616;9.548;2023-05-29T00:40:13;6.03;;;4.13;;
9138;SDS011;4604;48.616;9.548;2023-05-29T00:42:40;5.10;;;3.47;;
9138;SDS011;4604;48.616;9.548;2023-05-29T00:45:06;5.35;;;3.50;;
9138;SDS011;4604;48.616;9.548;2023-05-29T00:47:39;5.80;;;3.53;;
9138;SDS011;4604;48.616;9.548;2023-05-29T00:50:06;5.00;;;3.80;;
9138;SDS011;4604;48.616;9.548;2023-05-29T00:52:38;6.55;;;4.00;;
9138;SDS011;4604;48.616;9.548;2023-05-29T00:55:07;6.88;;;4.07;;
9138;SDS011;4604;48.616;9.548;2023-05-29T00:57:34;6.00;;;4.03;;
9138;SDS011;4604;48.616;9.548;2023-05-29T01:00:03;6.32;;;3.60;;
9138;SDS011;4604;48.616;9.548;2023-05-29T01:02:32;8.70;;;4.75;;
9138;SDS011;4604;48.616;9.548;2023-05-29T01:05:02;7.53;;;3.70;;
9138;SDS011;4604;48.616;9.548;2023-05-29T01:07:30;5.00;;;3.53;;
9138;SDS011;4604;48.616;9.548;2023-05-29T01:09:58;7.60;;;3.93;;
9138;SDS011;4604;48.616;9.548;2023-05-29T01:12:27;6.80;;;3.70;;
9138;SDS011;4604;48.616;9.548;2023-05-29T01:15:14;8.40;;;3.83;;
9138;SDS011;4604;48.616;9.548;2023-05-29T01:17:51;6.57;;;3.37;;
9138;SDS011;4604;48.616;9.548;2023-05-29T01:20:31;6.47;;;4.00;;
9138;SDS011;4604;48.616;9.548;2023-05-29T01:23:07;5.97;;;3.57;;
9138;SDS011;4604;48.616;9.548;2023-05-29T01:25:56;5.33;;;3.80;;
9138;SDS011;4604;48.616;9.548;2023-05-29T01:28:36;4.97;;;3.87;;
9138;SDS011;4604;48.616;9.548;2023-05-29T01:31:06;7.30;;;3.73;;
9138;SDS011;4604;48.616;9.548;2023-05-29T01:33:34;4.23;;;3.53;;
9138;SDS011;4604;48.616;9.548;2023-05-29T01:36:05;8.13;;;4.27;;
9138;SDS011;4604;48.616;9.548;2023-05-29T01:38:33;6.13;;;3.63;;
9138;SDS011;4604;48.616;9.548;2023-05-29T01:40:59;5.47;;;3.50;;
9138;SDS011;4604;48.616;9.548;2023-05-29T01:43:27;7.30;;;3.80;;
9138;SDS011;4604;48.616;9.548;2023-05-29T01:45:56;4.57;;;3.47;;
9138;SDS011;4604;48.616;9.548;2023-05-29T01:48:23;8.17;;;3.83;;
9138;SDS011;4604;48.616;9.548;2023-05-29T01:50:50;6.50;;;3.80;;
9138;SDS011;4604;48.616;9.548;2023-05-29T01:53:17;6.27;;;3.50;;
9138;SDS011;4604;48.616;9.548;2023-05-29T01:55:45;7.03;;;4.27;;
9138;SDS011;4604;48.616;9.548;2023-05-29T01:58:11;6.20;;;3.90;;
9138;SDS011;4604;48.616;9.548;2023-05-29T02:00:40;7.20;;;3.90;;
9138;SDS011;4604;48.616;9.548;2023-05-29T02:03:08;6.10;;;3.73;;
9138;SDS011;4604;48.616;9.548;2023-05-29T02:05:34;7.90;;;4.20;;
9138;SDS011;4604;48.616;9.548;2023-05-29T02:08:01;5.10;;;3.20;;
9138;SDS011;4604;48.616;9.548;2023-05-29T02:10:27;6.37;;;3.80;;
9138;SDS011;4604;48.616;9.548;2023-05-29T02:12:55;5.60;;;3.47;;
9138;SDS011;4604;48.616;9.548;2023-05-29T02:15:22;7.43;;;4.03;;
9138;SDS011;4604;48.616;9.548;2023-05-29T02:17:49;5.73;;;3.70;;
9138;SDS011;4604;48.616;9.548;2023-05-29T02:20:18;12.57;;;3.83;;
9138;SDS011;4604;48.616;9.548;2023-05-29T02:22:44;6.50;;;3.70;;
9138;SDS011;4604;48.616;9.548;2023-05-29T02:25:11;7.23;;;2.97;;
9138;SDS011;4604;48.616;9.548;2023-05-29T02:27:38;5.43;;;3.63;;
9138;SDS011;4604;48.616;9.548;2023-05-29T02:30:05;5.53;;;3.90;;
9138;SDS011;4604;48.616;9.548;2023-05-29T02:32:33;5.20;;;3.80;;
9138;SDS011;4604;48.616;9.548;2023-05-29T02:35:00;7.73;;;3.90;;
9138;SDS011;4604;48.616;9.548;2023-05-29T02:37:28;5.27;;;3.60;;
9138;SDS011;4604;48.616;9.548;2023-05-29T02:39:54;7.03;;;3.63;;
9138;SDS011;4604;48.616;9.548;2023-05-29T02:42:21;8.87;;;4.03;;
9138;SDS011;4604;48.616;9.548;2023-05-29T02:44:48;6.67;;;3.97;;
9138;SDS011;4604;48.616;9.548;2023-05-29T02:47:15;8.23;;;3.73;;
9138;SDS011;4604;48.616;9.548;2023-05-29T02:49:41;6.90;;;4.00;;
9138;SDS011;4604;48.616;9.548;2023-05-29T02:52:08;5.00;;;3.57;;
9138;SDS011;4604;48.616;9.548;2023-05-29T02:54:36;5.67;;;3.47;;
9138;SDS011;4604;48.616;9.548;2023-05-29T02:57:03;6.23;;;4.10;;
9138;SDS011;4604;48.616;9.548;2023-05-29T02:59:30;6.03;;;3.93;;
9138;SDS011;4604;48.616;9.548;2023-05-29T03:01:58;7.33;;;3.70;;
9138;SDS011;4604;48.616;9.548;2023-05-29T03:04:24;8.60;;;3.80;;
9138;SDS011;4604;48.616;9.548;2023-05-29T03:06:52;6.27;;;4.00;;
9138;SDS011;4604;48.616;9.548;2023-05-29T03:09:19;7.27;;;4.63;;
9138;SDS011;4604;48.616;9.548;2023-05-29T03:11:47;5.03;;;3.67;;
9138;SDS011;4604;48.616;9.548;2023-05-29T03:14:14;6.13;;;3.80;;
9138;SDS011;4604;48.616;9.548;2023-05-29T03:16:41;4.60;;;3.40;;
9138;SDS011;4604;48.616;9.548;2023-05-29T03:19:08;7.93;;;4.00;;
9138;SDS011;4604;48.616;9.548;2023-05-29T03:21:35;5.07;;;3.60;;
9138;SDS011;4604;48.616;9.548;2023-05-29T03:24:02;7.30;;;3.80;;
9138;SDS011;4604;48.616;9.548;2023-05-29T03:26:29;5.97;;;3.73;;
9138;SDS011;4604;48.616;9.548;2023-05-29T03:28:57;7.07;;;3.90;;
9138;SDS011;4604;48.616;9.548;2023-05-29T03:31:24;6.77;;;3.63;;
9138;SDS011;4604;48.616;9.548;2023-05-29T03:33:50;5.93;;;3.97;;
9138;SDS011;4604;48.616;9.548;2023-05-29T03:36:17;6.00;;;3.87;;
9138;SDS011;4604;48.616;9.548;2023-05-29T03:38:44;5.83;;;3.73;;
9138;SDS011;4604;48.616;9.548;2023-05-29T03:41:13;6.47;;;3.77;;
9138;SDS011;4604;48.616;9.548;2023-05-29T03:43:40;6.23;;;3.60;;
9138;SDS011;4604;48.616;9.548;2023-05-29T03:46:08;8.23;;;4.00;;
9138;SDS011;4604;48.616;9.548;2023-05-29T03:48:35;6.63;;;3.87;;
9138;SDS011;4604;48.616;9.548;2023-05-29T03:51:01;7.40;;;4.53;;
9138;SDS011;4604;48.616;9.548;2023-05-29T03:53:28;8.13;;;4.07;;
9138;SDS011;4604;48.616;9.548;2023-05-29T03:55:55;10.40;;;4.50;;
9138;SDS011;4604;48.616;9.548;2023-05-29T03:58:21;7.13;;;4.37;;
9138;SDS011;4604;48.616;9.548;2023-05-29T04:00:48;9.73;;;4.70;;
9138;SDS011;4604;48.616;9.548;2023-05-29T04:03:16;7.53;;;4.27;;
9138;SDS011;4604;48.616;9.548;2023-05-29T04:05:43;7.23;;;4.10;;
9138;SDS011;4604;48.616;9.548;2023-05-29T04:08:09;7.23;;;4.20;;
9138;SDS011;4604;48.616;9.548;2023-05-29T04:10:38;7.77;;;4.20;;
9138;SDS011;4604;48.616;9.548;2023-05-29T04:13:05;8.00;;;4.63;;
9138;SDS011;4604;48.616;9.548;2023-05-29T04:15:32;9.27;;;4.47;;
9138;SDS011;4604;48.616;9.548;2023-05-29T04:17:59;8.40;;;4.43;;
9138;SDS011;4604;48.616;9.548;2023-05-29T04:20:28;5.60;;;3.63;;
9138;SDS011;4604;48.616;9.548;2023-05-29T04:22:54;7.40;;;4.27;;
9138;SDS011;4604;48.616;9.548;2023-05-29T04:25:21;7.27;;;4.40;;
9138;SDS011;4604;48.616;9.548;2023-05-29T04:27:48;9.00;;;4.27;;
9138;SDS011;4604;48.616;9.548;2023-05-29T04:30:15;6.30;;;3.97;;
9138;SDS011;4604;48.616;9.548;2023-05-29T04:32:42;6.43;;;3.83;;
9138;SDS011;4604;48.616;9.548;2023-05-29T04:35:09;5.93;;;4.00;;
9138;SDS011;4604;48.616;9.548;2023-05-29T04:37:37;8.83;;;4.53;;
9138;SDS011;4604;48.616;9.548;2023-05-29T04:40:05;9.87;;;4.73;;
9138;SDS011;4604;48.616;9.548;2023-05-29T04:42:34;9.60;;;4.60;;
9138;SDS011;4604;48.616;9.548;2023-05-29T04:45:01;6.77;;;4.70;;
9138;SDS011;4604;48.616;9.548;2023-05-29T04:47:29;9.97;;;4.50;;
9138;SDS011;4604;48.616;9.548;2023-05-29T04:49:58;10.63;;;4.73;;
9138;SDS011;4604;48.616;9.548;2023-05-29T04:52:25;9.73;;;5.13;;
9138;SDS011;4604;48.616;9.548;2023-05-29T04:54:53;7.57;;;4.83;;
9138;SDS011;4604;48.616;9.548;2023-05-29T04:57:20;9.30;;;5.00;;
9138;SDS011;4604;48.616;9.548;2023-05-29T04:59:46;7.93;;;4.93;;
9138;SDS011;4604;48.616;9.548;2023-05-29T05:02:13;9.37;;;4.90;;
9138;SDS011;4604;48.616;9.548;2023-05-29T05:04:40;7.77;;;4.43;;
9138;SDS011;4604;48.616;9.548;2023-05-29T05:07:07;10.57;;;4.60;;
9138;SDS011;4604;48.616;9.548;2023-05-29T05:09:36;7.77;;;5.37;;
9138;SDS011;4604;48.616;9.548;2023-05-29T05:12:04;8.67;;;5.53;;
9138;SDS011;4604;48.616;9.548;2023-05-29T05:14:32;8.70;;;5.13;;
9138;SDS011;4604;48.616;9.548;2023-05-29T05:16:58;9.50;;;4.97;;
9138;SDS011;4604;48.616;9.548;2023-05-29T05:19:25;8.03;;;4.80;;
9138;SDS011;4604;48.616;9.548;2023-05-29T05:21:51;8.50;;;5.18;;
9138;SDS011;4604;48.616;9.548;2023-05-29T05:24:18;10.60;;;5.05;;
9138;SDS011;4604;48.616;9.548;2023-05-29T05:26:45;9.25;;;5.15;;
9138;SDS011;4604;48.616;9.548;2023-05-29T05:29:13;7.40;;;5.10;;
9138;SDS011;4604;48.616;9.548;2023-05-29T05:31:39;12.87;;;5.07;;
9138;SDS011;4604;48.616;9.548;2023-05-29T05:34:06;6.70;;;4.60;;
9138;SDS011;4604;48.616;9.548;2023-05-29T05:36:33;8.00;;;5.23;;
9138;SDS011;4604;48.616;9.548;2023-05-29T05:39:01;7.72;;;5.40;;
9138;SDS011;4604;48.616;9.548;2023-05-29T05:41:29;14.05;;;5.47;;
9138;SDS011;4604;48.616;9.548;2023-05-29T05:43:58;8.38;;;4.72;;
9138;SDS011;4604;48.616;9.548;2023-05-29T05:46:26;9.18;;;5.45;;
9138;SDS011;4604;48.616;9.548;2023-05-29T05:48:53;9.55;;;5.70;;
9138;SDS011;4604;48.616;9.548;2023-05-29T05:51:22;9.38;;;5.50;;
9138;SDS011;4604;48.616;9.548;2023-05-29T05:53:48;8.68;;;5.35;;
9138;SDS011;4604;48.616;9.548;2023-05-29T05:56:15;8.82;;;5.22;;
9138;SDS011;4604;48.616;9.548;2023-05-29T05:58:42;6.80;;;5.07;;
9138;SDS011;4604;48.616;9.548;2023-05-29T06:01:09;9.43;;;5.35;;
9138;SDS011;4604;48.616;9.548;2023-05-29T06:03:36;8.18;;;5.35;;
9138;SDS011;4604;48.616;9.548;2023-05-29T06:06:03;12.02;;;5.47;;
9138;SDS011;4604;48.616;9.548;2023-05-29T06:08:30;10.88;;;5.38;;
9138;SDS011;4604;48.616;9.548;2023-05-29T06:10:57;9.48;;;5.30;;
9138;SDS011;4604;48.616;9.548;2023-05-29T06:13:24;7.55;;;5.15;;
9138;SDS011;4604;48.616;9.548;2023-05-29T06:15:50;7.68;;;5.30;;
9138;SDS011;4604;48.616;9.548;2023-05-29T06:18:17;8.90;;;5.50;;
9138;SDS011;4604;48.616;9.548;2023-05-29T06:20:45;10.38;;;5.30;;
9138;SDS011;4604;48.616;9.548;2023-05-29T06:23:11;8.85;;;5.28;;
9138;SDS011;4604;48.616;9.548;2023-05-29T06:25:38;9.70;;;5.60;;
9138;SDS011;4604;48.616;9.548;2023-05-29T06:28:04;10.82;;;5.45;;
9138;SDS011;4604;48.616;9.548;2023-05-29T06:30:32;7.20;;;5.18;;
9138;SDS011;4604;48.616;9.548;2023-05-29T06:32:58;6.55;;;4.70;;
9138;SDS011;4604;48.616;9.548;2023-05-29T06:35:25;8.45;;;5.38;;
9138;SDS011;4604;48.616;9.548;2023-05-29T06:37:53;7.38;;;5.22;;
9138;SDS011;4604;48.616;9.548;2023-05-29T06:40:19;8.02;;;5.18;;
9138;SDS011;4604;48.616;9.548;2023-05-29T06:42:46;9.20;;;5.22;;
9138;SDS011;4604;48.616;9.548;2023-05-29T06:45:13;6.75;;;4.82;;
9138;SDS011;4604;48.616;9.548;2023-05-29T06:47:40;7.82;;;5.20;;
9138;SDS011;4604;48.616;9.548;2023-05-29T06:50:07;8.32;;;5.38;;
9138;SDS011;4604;48.616;9.548;2023-05-29T06:52:34;11.18;;;5.82;;
9138;SDS011;4604;48.616;9.548;2023-05-29T06:55:02;9.55;;;5.53;;
9138;SDS011;4604;48.616;9.548;2023-05-29T06:57:30;9.25;;;5.38;;
9138;SDS011;4604;48.616;9.548;2023-05-29T06:59:56;7.88;;;4.80;;
9138;SDS011;4604;48.616;9.548;2023-05-29T07:02:23;7.78;;;4.80;;
9138;SDS011;4604;48.616;9.548;2023-05-29T07:04:49;8.48;;;5.18;;
9138;SDS011;4604;48.616;9.548;2023-05-29T07:07:16;7.03;;;5.22;;
9138;SDS011;4604;48.616;9.548;2023-05-29T07:09:43;7.80;;;5.25;;
9138;SDS011;4604;48.616;9.548;2023-05-29T07:12:12;7.07;;;5.03;;
9138;SDS011;4604;48.616;9.548;2023-05-29T07:14:38;8.13;;;5.63;;
9138;SDS011;4604;48.616;9.548;2023-05-29T07:17:05;8.93;;;5.50;;
9138;SDS011;4604;48.616;9.548;2023-05-29T07:19:34;9.15;;;4.57;;
9138;SDS011;4604;48.616;9.548;2023-05-29T07:22:01;10.10;;;5.63;;
9138;SDS011;4604;48.616;9.548;2023-05-29T07:24:28;7.05;;;4.85;;
9138;SDS011;4604;48.616;9.548;2023-05-29T07:26:54;8.45;;;4.85;;
9138;SDS011;4604;48.616;9.548;2023-05-29T07:29:22;10.45;;;5.07;;
9138;SDS011;4604;48.616;9.548;2023-05-29T07:31:50;9.18;;;5.18;;
9138;SDS011;4604;48.616;9.548;2023-05-29T07:34:18;7.65;;;5.10;;
9138;SDS011;4604;48.616;9.548;2023-05-29T07:36:55;7.93;;;5.00;;
9138;SDS011;4604;48.616;9.548;2023-05-29T07:39:23;7.72;;;4.57;;
9138;SDS011;4604;48.616;9.548;2023-05-29T07:41:49;7.38;;;4.40;;
9138;SDS011;4604;48.616;9.548;2023-05-29T07:44:16;7.80;;;4.40;;
9138;SDS011;4604;48.616;9.548;2023-05-29T07:46:44;7.38;;;4.28;;
9138;SDS011;4604;48.616;9.548;2023-05-29T07:49:11;8.75;;;4.93;;
9138;SDS011;4604;48.616;9.548;2023-05-29T07:51:38;7.72;;;4.65;;
9138;SDS011;4604;48.616;9.548;2023-05-29T07:54:04;7.07;;;4.75;;
9138;SDS011;4604;48.616;9.548;2023-05-29T07:56:31;6.50;;;4.30;;
9138;SDS011;4604;48.616;9.548;2023-05-29T07:58:59;9.07;;;4.47;;
9138;SDS011;4604;48.616;9.548;2023-05-29T08:01:28;7.03;;;4.35;;
9138;SDS011;4604;48.616;9.548;2023-05-29T08:03:57;5.78;;;4.03;;
9138;SDS011;4604;48.616;9.548;2023-05-29T08:06:23;5.35;;;4.15;;
9138;SDS011;4604;48.616;9.548;2023-05-29T08:08:50;7.03;;;4.88;;
9138;SDS011;4604;48.616;9.548;2023-05-29T08:11:17;7.75;;;4.18;;
9138;SDS011;4604;48.616;9.548;2023-05-29T08:13:44;6.40;;;4.68;;
9138;SDS011;4604;48.616;9.548;2023-05-29T08:16:11;6.57;;;4.60;;
9138;SDS011;4604;48.616;9.548;2023-05-29T08:18:39;8.65;;;4.57;;
9138;SDS011;4604;48.616;9.548;2023-05-29T08:21:07;5.65;;;4.38;;
9138;SDS011;4604;48.616;9.548;2023-05-29T08:23:38;7.28;;;4.45;;
9138;SDS011;4604;48.616;9.548;2023-05-29T08:26:05;6.45;;;4.32;;
9138;SDS011;4604;48.616;9.548;2023-05-29T08:28:32;9.35;;;4.43;;
9138;SDS011;4604;48.616;9.548;2023-05-29T08:30:59;7.30;;;4.70;;
9138;SDS011;4604;48.616;9.548;2023-05-29T08:33:26;7.38;;;4.40;;
9138;SDS011;4604;48.616;9.548;2023-05-29T08:35:53;7.82;;;4.20;;
9138;SDS011;4604;48.616;9.548;2023-05-29T08:38:21;8.38;;;4.55;;
9138;SDS011;4604;48.616;9.548;2023-05-29T08:40:52;7.22;;;4.63;;
9138;SDS011;4604;48.616;9.548;2023-05-29T08:43:20;6.82;;;4.80;;
9138;SDS011;4604;48.616;9.548;2023-05-29T08:45:50;6.35;;;4.53;;
9138;SDS011;4604;48.616;9.548;2023-05-29T08:48:20;7.50;;;4.57;;
9138;SDS011;4604;48.616;9.548;2023-05-29T08:50:49;8.88;;;4.72;;
9138;SDS011;4604;48.616;9.548;2023-05-29T08:53:21;8.38;;;4.88;;
9138;SDS011;4604;48.616;9.548;2023-05-29T08:55:48;6.80;;;4.28;;
9138;SDS011;4604;48.616;9.548;2023-05-29T08:58:18;7.50;;;4.03;;
9138;SDS011;4604;48.616;9.548;2023-05-29T09:00:46;6.25;;;4.13;;
9138;SDS011;4604;48.616;9.548;2023-05-29T09:03:13;7.55;;;4.28;;
9138;SDS011;4604;48.616;9.548;2023-05-29T09:05:40;7.85;;;4.47;;
9138;SDS011;4604;48.616;9.548;2023-05-29T09:08:07;10.05;;;4.32;;
9138;SDS011;4604;48.616;9.548;2023-05-29T09:10:38;7.78;;;4.32;;
9138;SDS011;4604;48.616;9.548;2023-05-29T09:13:09;5.32;;;4.00;;
9138;SDS011;4604;48.616;9.548;2023-05-29T09:15:38;9.23;;;4.35;;
9138;SDS011;4604;48.616;9.548;2023-05-29T09:18:08;6.72;;;4.38;;
9138;SDS011;4604;48.616;9.548;2023-05-29T09:20:35;5.53;;;4.22;;
9138;SDS011;4604;48.616;9.548;2023-05-29T09:23:02;7.85;;;4.50;;
9138;SDS011;4604;48.616;9.548;2023-05-29T09:25:30;7.47;;;4.68;;
9138;SDS011;4604;48.616;9.548;2023-05-29T09:28:01;6.20;;;4.60;;
9138;SDS011;4604;48.616;9.548;2023-05-29T09:30:33;6.80;;;4.63;;
9138;SDS011;4604;48.616;9.548;2023-05-29T09:33:02;6.50;;;4.22;;
9138;SDS011;4604;48.616;9.548;2023-05-29T09:35:35;7.63;;;4.60;;
9138;SDS011;4604;48.616;9.548;2023-05-29T09:38:03;8.35;;;4.45;;
9138;SDS011;4604;48.616;9.548;2023-05-29T09:40:31;7.13;;;4.07;;
9138;SDS011;4604;48.616;9.548;2023-05-29T09:43:03;6.93;;;4.28;;
9138;SDS011;4604;48.616;9.548;2023-05-29T09:45:32;6.68;;;4.40;;
9138;SDS011;4604;48.616;9.548;2023-05-29T09:47:59;8.20;;;4.15;;
9138;SDS011;4604;48.616;9.548;2023-05-29T09:50:26;8.13;;;4.43;;
9138;SDS011;4604;48.616;9.548;2023-05-29T09:52:53;8.25;;;4.50;;
9138;SDS011;4604;48.616;9.548;2023-05-29T09:55:23;5.40;;;3.65;;
9138;SDS011;4604;48.616;9.548;2023-05-29T09:57:52;7.22;;;3.80;;
9138;SDS011;4604;48.616;9.548;2023-05-29T10:00:22;7.72;;;4.03;;
9138;SDS011;4604;48.616;9.548;2023-05-29T10:02:49;6.75;;;3.97;;
9138;SDS011;4604;48.616;9.548;2023-05-29T10:05:15;6.25;;;3.65;;
9138;SDS011;4604;48.616;9.548;2023-05-29T10:07:43;6.68;;;3.60;;
9138;SDS011;4604;48.616;9.548;2023-05-29T10:10:12;5.47;;;4.00;;
9138;SDS011;4604;48.616;9.548;2023-05-29T10:12:44;7.95;;;3.70;;
9138;SDS011;4604;48.616;9.548;2023-05-29T10:15:14;4.88;;;3.47;;
9138;SDS011;4604;48.616;9.548;2023-05-29T10:17:49;6.72;;;3.85;;
9138;SDS011;4604;48.616;9.548;2023-05-29T10:20:17;9.18;;;4.07;;
9138;SDS011;4604;48.616;9.548;2023-05-29T10:22:47;5.47;;;4.00;;
9138;SDS011;4604;48.616;9.548;2023-05-29T10:25:15;5.75;;;3.60;;
9138;SDS011;4604;48.616;9.548;2023-05-29T10:27:45;6.03;;;3.58;;
9138;SDS011;4604;48.616;9.548;2023-05-29T10:30:13;8.50;;;4.10;;
9138;SDS011;4604;48.616;9.548;2023-05-29T10:32:47;7.32;;;3.70;;
9138;SDS011;4604;48.616;9.548;2023-05-29T10:35:31;5.57;;;3.60;;
9138;SDS011;4604;48.616;9.548;2023-05-29T10:38:09;5.65;;;3.70;;
9138;SDS011;4604;48.616;9.548;2023-05-29T10:40:38;6.85;;;3.58;;
9138;SDS011;4604;48.616;9.548;2023-05-29T10:43:04;5.30;;;3.65;;
9138;SDS011;4604;48.616;9.548;2023-05-29T10:45:49;8.93;;;3.90;;
9138;SDS011;4604;48.616;9.548;2023-05-29T10:51:07;4.95;;;3.30;;
9138;SDS011;4604;48.616;9.548;2023-05-29T10:53:35;6.15;;;3.20;;
9138;SDS011;4604;48.616;9.548;2023-05-29T10:56:07;7.03;;;3.67;;
9138;SDS011;4604;48.616;9.548;2023-05-29T10:58:36;4.70;;;3.60;;
9138;SDS011;4604;48.616;9.548;2023-05-29T11:01:04;10.60;;;3.47;;
9138;SDS011;4604;48.616;9.548;2023-05-29T11:03:34;4.45;;;2.92;;
9138;SDS011;4604;48.616;9.548;2023-05-29T11:06:03;6.63;;;3.58;;
9138;SDS011;4604;48.616;9.548;2023-05-29T11:08:33;4.38;;;2.88;;
9138;SDS011;4604;48.616;9.548;2023-05-29T11:11:01;5.05;;;3.53;;
9138;SDS011;4604;48.616;9.548;2023-05-29T11:13:31;5.78;;;3.65;;
9138;SDS011;4604;48.616;9.548;2023-05-29T11:16:10;7.40;;;3.63;;
9138;SDS011;4604;48.616;9.548;2023-05-29T11:18:41;6.18;;;3.50;;
9138;SDS011;4604;48.616;9.548;2023-05-29T11:21:21;5.03;;;3.40;;
9138;SDS011;4604;48.616;9.548;2023-05-29T11:23:50;4.78;;;3.47;;
9138;SDS011;4604;48.616;9.548;2023-05-29T11:26:18;5.70;;;3.25;;
9138;SDS011;4604;48.616;9.548;2023-05-29T11:28:46;4.28;;;3.17;;
9138;SDS011;4604;48.616;9.548;2023-05-29T11:31:13;4.55;;;2.95;;
9138;SDS011;4604;48.616;9.548;2023-05-29T11:33:45;5.55;;;3.50;;
9138;SDS011;4604;48.616;9.548;2023-05-29T11:36:14;5.45;;;3.40;;
9138;SDS011;4604;48.616;9.548;2023-05-29T11:38:45;5.18;;;3.08;;
9138;SDS011;4604;48.616;9.548;2023-05-29T11:41:12;7.22;;;3.40;;
9138;SDS011;4604;48.616;9.548;2023-05-29T11:43:39;5.78;;;3.10;;
9138;SDS011;4604;48.616;9.548;2023-05-29T11:46:16;4.47;;;2.97;;
9138;SDS011;4604;48.616;9.548;2023-05-29T11:48:44;4.78;;;3.20;;
9138;SDS011;4604;48.616;9.548;2023-05-29T11:51:12;4.68;;;3.05;;
9138;SDS011;4604;48.616;9.548;2023-05-29T11:53:39;6.05;;;3.25;;
9138;SDS011;4604;48.616;9.548;2023-05-29T11:56:08;4.85;;;2.92;;
9138;SDS011;4604;48.616;9.548;2023-05-29T11:58:36;4.95;;;3.17;;
9138;SDS011;4604;48.616;9.548;2023-05-29T12:01:03;4.30;;;3.10;;
9138;SDS011;4604;48.616;9.548;2023-05-29T12:03:30;4.90;;;2.88;;
9138;SDS011;4604;48.616;9.548;2023-05-29T12:05:56;6.78;;;3.50;;
9138;SDS011;4604;48.616;9.548;2023-05-29T12:08:23;6.68;;;3.25;;
9138;SDS011;4604;48.616;9.548;2023-05-29T12:10:52;4.22;;;3.20;;
9138;SDS011;4604;48.616;9.548;2023-05-29T12:13:20;4.18;;;3.28;;
9138;SDS011;4604;48.616;9.548;2023-05-29T12:15:52;5.60;;;3.28;;
9138;SDS011;4604;48.616;9.548;2023-05-29T12:18:20;4.38;;;3.30;;
9138;SDS011;4604;48.616;9.548;2023-05-29T12:20:47;5.68;;;3.20;;
9138;SDS011;4604;48.616;9.548;2023-05-29T12:23:14;4.35;;;2.88;;
9138;SDS011;4604;48.616;9.548;2023-05-29T12:25:44;4.45;;;3.20;;
9138;SDS011;4604;48.616;9.548;2023-05-29T12:28:11;3.83;;;3.00;;
9138;SDS011;4604;48.616;9.548;2023-05-29T12:30:44;4.22;;;3.33;;
9138;SDS011;4604;48.616;9.548;2023-05-29T12:33:24;4.38;;;2.95;;
9138;SDS011;4604;48.616;9.548;2023-05-29T12:35:53;3.83;;;2.78;;
9138;SDS011;4604;48.616;9.548;2023-05-29T12:38:20;5.65;;;3.00;;
9138;SDS011;4604;48.616;9.548;2023-05-29T12:40:49;6.05;;;3.58;;
9138;SDS011;4604;48.616;9.548;2023-05-29T12:43:18;3.35;;;2.80;;
9138;SDS011;4604;48.616;9.548;2023-05-29T12:45:46;5.30;;;2.95;;
9138;SDS011;4604;48.616;9.548;2023-05-29T12:48:12;6.57;;;3.90;;
9138;SDS011;4604;48.616;9.548;2023-05-29T12:50:40;6.30;;;3.67;;
9138;SDS011;4604;48.616;9.548;2023-05-29T12:53:07;4.93;;;3.25;;
9138;SDS011;4604;48.616;9.548;2023-05-29T12:55:35;4.25;;;3.33;;
9138;SDS011;4604;48.616;9.548;2023-05-29T12:58:03;4.80;;;3.08;;
9138;SDS011;4604;48.616;9.548;2023-05-29T13:00:30;5.07;;;3.17;;
9138;SDS011;4604;48.616;9.548;2023-05-29T13:02:59;6.85;;;3.42;;
9138;SDS011;4604;48.616;9.548;2023-05-29T13:05:26;3.90;;;3.45;;
9138;SDS011;4604;48.616;9.548;2023-05-29T13:07:53;4.60;;;3.30;;
9138;SDS011;4604;48.616;9.548;2023-05-29T13:10:20;5.03;;;3.22;;
9138;SDS011;4604;48.616;9.548;2023-05-29T13:12:47;6.43;;;3.65;;
9138;SDS011;4604;48.616;9.548;2023-05-29T13:15:20;3.92;;;3.20;;
9138;SDS011;4604;48.616;9.548;2023-05-29T13:17:47;7.00;;;3.40;;
9138;SDS011;4604;48.616;9.548;2023-05-29T13:20:16;6.30;;;3.17;;
9138;SDS011;4604;48.616;9.548;2023-05-29T13:22:46;6.45;;;3.67;;
9138;SDS011;4604;48.616;9.548;2023-05-29T13:25:14;6.45;;;3.30;;
9138;SDS011;4604;48.616;9.548;2023-05-29T13:27:46;5.93;;;3.70;;
9138;SDS011;4604;48.616;9.548;2023-05-29T13:30:13;8.30;;;3.70;;
9138;SDS011;4604;48.616;9.548;2023-05-29T13:32:41;4.35;;;3.45;;
9138;SDS011;4604;48.616;9.548;2023-05-29T13:35:08;6.82;;;3.55;;
9138;SDS011;4604;48.616;9.548;2023-05-29T13:37:36;5.35;;;3.40;;
9138;SDS011;4604;48.616;9.548;2023-05-29T13:40:04;4.88;;;3.42;;
9138;SDS011;4604;48.616;9.548;2023-05-29T13:42:34;6.53;;;3.60;;
9138;SDS011;4604;48.616;9.548;2023-05-29T13:45:00;5.15;;;3.55;;
9138;SDS011;4604;48.616;9.548;2023-05-29T13:47:28;4.72;;;3.25;;
9138;SDS011;4604;48.616;9.548;2023-05-29T13:49:56;5.50;;;3.58;;
9138;SDS011;4604;48.616;9.548;2023-05-29T13:52:23;5.63;;;3.63;;
9138;SDS011;4604;48.616;9.548;2023-05-29T13:54:54;5.18;;;3.85;;
9138;SDS011;4604;48.616;9.548;2023-05-29T13:57:23;6.80;;;3.72;;
9138;SDS011;4604;48.616;9.548;2023-05-29T13:59:49;4.97;;;3.75;;
9138;SDS011;4604;48.616;9.548;2023-05-29T14:02:16;4.30;;;3.30;;
9138;SDS011;4604;48.616;9.548;2023-05-29T14:04:42;4.68;;;3.60;;
9138;SDS011;4604;48.616;9.548;2023-05-29T14:07:09;7.20;;;3.67;;
9138;SDS011;4604;48.616;9.548;2023-05-29T14:09:36;7.63;;;3.45;;
9138;SDS011;4604;48.616;9.548;2023-05-29T14:12:05;5.70;;;3.33;;
9138;SDS011;4604;48.616;9.548;2023-05-29T14:14:32;4.38;;;3.40;;
9138;SDS011;4604;48.616;9.548;2023-05-29T14:16:59;4.53;;;3.33;;
9138;SDS011;4604;48.616;9.548;2023-05-29T14:19:30;5.00;;;3.92;;
9138;SDS011;4604;48.616;9.548;2023-05-29T14:21:56;5.57;;;3.30;;
9138;SDS011;4604;48.616;9.548;2023-05-29T14:24:24;4.82;;;3.33;;
9138;SDS011;4604;48.616;9.548;2023-05-29T14:26:51;4.78;;;3.20;;
9138;SDS011;4604;48.616;9.548;2023-05-29T14:29:19;4.20;;;3.33;;
9138;SDS011;4604;48.616;9.548;2023-05-29T14:31:45;5.13;;;3.63;;
9138;SDS011;4604;48.616;9.548;2023-05-29T14:34:12;4.55;;;3.42;;
9138;SDS011;4604;48.616;9.548;2023-05-29T14:36:41;6.35;;;3.38;;
9138;SDS011;4604;48.616;9.548;2023-05-29T14:39:09;7.18;;;3.20;;
9138;SDS011;4604;48.616;9.548;2023-05-29T14:41:36;4.88;;;3.22;;
9138;SDS011;4604;48.616;9.548;2023-05-29T14:44:03;4.50;;;3.28;;
9138;SDS011;4604;48.616;9.548;2023-05-29T14:46:31;4.28;;;3.20;;
9138;SDS011;4604;48.616;9.548;2023-05-29T14:48:58;3.22;;;2.70;;
9138;SDS011;4604;48.616;9.548;2023-05-29T14:51:25;5.93;;;3.08;;
9138;SDS011;4604;48.616;9.548;2023-05-29T14:53:51;7.95;;;3.13;;
9138;SDS011;4604;48.616;9.548;2023-05-29T14:56:18;3.90;;;3.28;;
9138;SDS011;4604;48.616;9.548;2023-05-29T14:58:45;4.10;;;3.30;;
9138;SDS011;4604;48.616;9.548;2023-05-29T15:01:13;4.75;;;3.45;;
9138;SDS011;4604;48.616;9.548;2023-05-29T15:03:41;4.10;;;3.30;;
9138;SDS011;4604;48.616;9.548;2023-05-29T15:06:08;4.18;;;3.20;;
9138;SDS011;4604;48.616;9.548;2023-05-29T15:08:35;6.45;;;3.17;;
9138;SDS011;4604;48.616;9.548;2023-05-29T15:11:02;3.22;;;2.92;;
9138;SDS011;4604;48.616;9.548;2023-05-29T15:13:29;5.78;;;3.25;;
9138;SDS011;4604;48.616;9.548;2023-05-29T15:15:56;5.88;;;3.72;;
9138;SDS011;4604;48.616;9.548;2023-05-29T15:18:24;4.32;;;3.35;;
9138;SDS011;4604;48.616;9.548;2023-05-29T15:20:52;5.90;;;3.15;;
9138;SDS011;4604;48.616;9.548;2023-05-29T15:23:20;4.80;;;3.40;;